Time;durP1;ratioP1;P1;durP2;ratioP2;P2;SDS_P1;SDS_P2;PMS_P1;PMS_P2;Temp;Humidity;BMP_temperature;BMP_pressure;BME280_temperature;BME280_humidity;BME280_pressure;Samples;Min_cycle;Max_cycle;Signal;HPM_P1;HPM_P2
2023/06/19 00:01:24;;;;;;;9.93;5.13;;;;;;;;;;5091170;28;20024;-66
2023/06/19 00:03:50;;;;;;;6.55;5.00;;;;;;;;;;5091859;28;20034;-66
2023/06/19 00:06:17;;;;;;;8.40;4.90;;;;;;;;;;5091624;28;20030;-66
2023/06/19 00:08:43;;;;;;;10.75;5.28;;;;;;;;;;5091740;28;20043;-65
2023/06/19 00:11:09;;;;;;;8.50;5.28;;;;;;;;;;5091703;28;20196;-65
2023/06/19 00:13:36;;;;;;;9.13;4.85;;;;;;;;;;5091413;28;20035;-65
2023/06/19 00:16:02;;;;;;;7.18;5.00;;;;;;;;;;5091630;28;20034;-66
2023/06/19 00:18:29;;;;;;;6.82;4.88;;;;;;;;;;5095129;28;20028;-66
2023/06/19 00:20:56;;;;;;;9.38;5.20;;;;;;;;;;5095399;28;20027;-66
2023/06/19 00:23:23;;;;;;;6.95;5.00;;;;;;;;;;5095279;28;20016;-66
2023/06/19 00:25:49;;;;;;;6.68;5.03;;;;;;;;;;5095407;28;20020;-66
2023/06/19 00:28:19;;;;;;;5.18;4.68;;;;;;;;;;5094556;28;20089;-65
2023/06/19 00:30:46;;;;;;;7.83;5.10;;;;;;;;;;5094927;28;20024;-66
2023/06/19 00:33:12;;;;;;;6.00;5.07;;;;;;;;;;5094918;28;20415;-65
2023/06/19 00:35:38;;;;;;;8.15;5.15;;;;;;;;;;5095125;28;20502;-65
2023/06/19 00:38:05;;;;;;;10.98;4.93;;;;;;;;;;5095121;28;20028;-66
2023/06/19 00:40:33;;;;;;;7.47;5.15;;;;;;;;;;5094995;28;20021;-66
2023/06/19 00:42:59;;;;;;;12.18;5.50;;;;;;;;;;5094821;28;20076;-66
2023/06/19 00:45:26;;;;;;;10.13;5.20;;;;;;;;;;5094687;28;20024;-66
2023/06/19 00:47:56;;;;;;;7.68;5.70;;;;;;;;;;5094795;28;20031;-66
2023/06/19 00:50:23;;;;;;;7.57;5.10;;;;;;;;;;5094837;28;20016;-66
2023/06/19 00:52:49;;;;;;;10.18;5.13;;;;;;;;;;5094695;28;20446;-66
2023/06/19 00:55:16;;;;;;;8.80;5.20;;;;;;;;;;5094249;28;20036;-66
2023/06/19 00:57:43;;;;;;;6.20;5.00;;;;;;;;;;5094219;28;20399;-65
2023/06/19 01:00:12;;;;;;;5.60;4.38;;;;;;;;;;5094315;28;20020;-66
2023/06/19 01:02:39;;;;;;;8.52;4.93;;;;;;;;;;5094659;28;20025;-66
2023/06/19 01:05:05;;;;;;;8.73;4.35;;;;;;;;;;5093316;28;20020;-66
2023/06/19 01:07:40;;;;;;;6.60;4.78;;;;;;;;;;5094477;28;20020;-66
2023/06/19 01:10:08;;;;;;;8.02;4.97;;;;;;;;;;5094179;28;20040;-65
2023/06/19 01:12:37;;;;;;;7.85;5.18;;;;;;;;;;5094676;28;20430;-66
2023/06/19 01:15:05;;;;;;;7.43;5.10;;;;;;;;;;5093981;28;20043;-66
2023/06/19 01:17:31;;;;;;;8.57;5.05;;;;;;;;;;5094487;28;20013;-66
2023/06/19 01:19:58;;;;;;;8.80;4.82;;;;;;;;;;5094043;28;20024;-66
2023/06/19 01:22:31;;;;;;;8.80;5.70;;;;;;;;;;5094148;28;20024;-66
2023/06/19 01:24:57;;;;;;;11.38;5.03;;;;;;;;;;5094449;28;20035;-66
2023/06/19 01:27:31;;;;;;;6.40;4.90;;;;;;;;;;5094085;28;20030;-66
2023/06/19 01:29:58;;;;;;;11.27;4.68;;;;;;;;;;5093852;28;20028;-66
2023/06/19 01:32:43;;;;;;;7.88;5.18;;;;;;;;;;5093918;28;20016;-66
2023/06/19 01:35:10;;;;;;;6.68;4.85;;;;;;;;;;5093716;28;20065;-65
2023/06/19 01:37:38;;;;;;;11.30;5.00;;;;;;;;;;5093696;28;20016;-66
2023/06/19 01:40:06;;;;;;;7.53;4.93;;;;;;;;;;5093592;28;20069;-66
2023/06/19 01:42:33;;;;;;;9.02;4.85;;;;;;;;;;5093071;28;20032;-66
2023/06/19 01:45:00;;;;;;;6.05;4.50;;;;;;;;;;5093615;28;20016;-65
2023/06/19 01:47:26;;;;;;;7.93;4.60;;;;;;;;;;5093409;28;20034;-65
2023/06/19 01:49:52;;;;;;;6.53;4.45;;;;;;;;;;5093576;28;20020;-65
2023/06/19 01:52:19;;;;;;;5.85;4.85;;;;;;;;;;5093400;28;20044;-66
2023/06/19 01:54:45;;;;;;;10.50;5.18;;;;;;;;;;5091916;28;20047;-66
2023/06/19 01:57:12;;;;;;;9.32;5.47;;;;;;;;;;5093608;28;20046;-66
2023/06/19 01:59:38;;;;;;;7.40;5.22;;;;;;;;;;5093703;28;20038;-66
2023/06/19 02:02:06;;;;;;;5.95;4.60;;;;;;;;;;5093195;28;20020;-65
2023/06/19 02:04:33;;;;;;;7.72;5.03;;;;;;;;;;5093030;28;20084;-66
2023/06/19 02:07:00;;;;;;;6.18;4.50;;;;;;;;;;5093131;28;20365;-66
2023/06/19 02:09:26;;;;;;;6.97;5.03;;;;;;;;;;5092820;28;20024;-66
2023/06/19 02:11:52;;;;;;;6.03;5.32;;;;;;;;;;5092556;28;20028;-66
2023/06/19 02:14:19;;;;;;;10.07;5.60;;;;;;;;;;5109012;28;20040;-66
2023/06/19 02:16:45;;;;;;;6.47;4.90;;;;;;;;;;5093116;28;20018;-66
2023/06/19 02:19:12;;;;;;;6.15;5.32;;;;;;;;;;5092960;28;20038;-66
2023/06/19 02:21:38;;;;;;;7.25;5.65;;;;;;;;;;5108860;28;20020;-66
2023/06/19 02:24:05;;;;;;;8.98;5.82;;;;;;;;;;5093137;28;20030;-66
2023/06/19 02:26:32;;;;;;;7.70;5.38;;;;;;;;;;5092735;28;20031;-66
2023/06/19 02:28:58;;;;;;;9.23;5.68;;;;;;;;;;5093181;28;20032;-65
2023/06/19 02:31:24;;;;;;;7.97;5.15;;;;;;;;;;5092790;28;20480;-66
2023/06/19 02:33:51;;;;;;;8.10;5.03;;;;;;;;;;5092683;28;20031;-66
2023/06/19 02:36:20;;;;;;;9.30;5.18;;;;;;;;;;5092981;28;20025;-66
2023/06/19 02:38:47;;;;;;;10.85;5.40;;;;;;;;;;5092308;28;20020;-65
2023/06/19 02:41:13;;;;;;;7.88;4.93;;;;;;;;;;5092667;28;20027;-66
2023/06/19 02:43:40;;;;;;;12.13;5.35;;;;;;;;;;5092597;28;20076;-66
2023/06/19 02:46:07;;;;;;;7.97;5.18;;;;;;;;;;5093132;28;20020;-65
2023/06/19 02:48:33;;;;;;;7.03;4.68;;;;;;;;;;5092798;28;20028;-66
2023/06/19 02:50:59;;;;;;;6.70;5.35;;;;;;;;;;5092724;28;20024;-66
2023/06/19 02:53:26;;;;;;;11.85;5.70;;;;;;;;;;5092172;28;20036;-66
2023/06/19 02:55:52;;;;;;;7.55;5.07;;;;;;;;;;5092272;28;20028;-66
2023/06/19 02:58:18;;;;;;;11.73;5.43;;;;;;;;;;5092433;28;20395;-66
2023/06/19 03:00:45;;;;;;;7.38;5.55;;;;;;;;;;5092236;28;20028;-66
2023/06/19 03:03:12;;;;;;;9.73;5.13;;;;;;;;;;5092618;28;20022;-65
2023/06/19 03:05:38;;;;;;;8.20;5.20;;;;;;;;;;5092619;28;20213;-65
2023/06/19 03:08:05;;;;;;;9.15;5.70;;;;;;;;;;5092111;28;20384;-66
2023/06/19 03:10:32;;;;;;;7.32;5.68;;;;;;;;;;5092127;28;20388;-66
2023/06/19 03:12:58;;;;;;;9.27;5.13;;;;;;;;;;5092590;28;20069;-66
2023/06/19 03:15:27;;;;;;;10.10;5.15;;;;;;;;;;5093072;28;20032;-66
2023/06/19 03:17:54;;;;;;;10.00;5.30;;;;;;;;;;5092282;28;20484;-66
2023/06/19 03:20:20;;;;;;;10.82;5.32;;;;;;;;;;5092365;28;20473;-66
2023/06/19 03:22:47;;;;;;;9.10;5.70;;;;;;;;;;5092069;28;20028;-65
2023/06/19 03:25:14;;;;;;;9.50;5.75;;;;;;;;;;5092493;28;20477;-66
2023/06/19 03:27:40;;;;;;;7.07;5.20;;;;;;;;;;5092061;28;20033;-65
2023/06/19 03:30:08;;;;;;;6.47;5.65;;;;;;;;;;5091805;28;20438;-66
2023/06/19 03:32:34;;;;;;;8.20;5.70;;;;;;;;;;5092248;28;20072;-65
2023/06/19 03:35:02;;;;;;;10.05;5.53;;;;;;;;;;5091887;28;20048;-66
2023/06/19 03:37:28;;;;;;;9.27;5.40;;;;;;;;;;5092118;28;20024;-66
2023/06/19 03:39:54;;;;;;;9.50;5.85;;;;;;;;;;5092100;28;20065;-65
2023/06/19 03:42:21;;;;;;;8.57;6.03;;;;;;;;;;5091945;28;20373;-66
2023/06/19 03:44:48;;;;;;;7.20;5.70;;;;;;;;;;5091813;28;20491;-66
2023/06/19 03:47:14;;;;;;;8.07;5.22;;;;;;;;;;5092045;28;20025;-66
2023/06/19 03:49:40;;;;;;;8.80;5.53;;;;;;;;;;5092189;28;20047;-65
2023/06/19 03:52:07;;;;;;;7.55;5.50;;;;;;;;;;5093561;28;20036;-66
2023/06/19 03:54:33;;;;;;;7.57;5.95;;;;;;;;;;5095542;28;20032;-66
2023/06/19 03:56:59;;;;;;;7.03;5.82;;;;;;;;;;5095826;28;20028;-65
2023/06/19 03:59:26;;;;;;;11.85;6.00;;;;;;;;;;5095499;28;20016;-66
2023/06/19 04:01:52;;;;;;;7.57;5.85;;;;;;;;;;5095785;28;20017;-66
2023/06/19 04:04:19;;;;;;;8.93;6.45;;;;;;;;;;5095362;28;20027;-66
2023/06/19 04:06:46;;;;;;;6.72;6.03;;;;;;;;;;5095364;28;20020;-66
2023/06/19 04:09:13;;;;;;;10.80;5.57;;;;;;;;;;5095678;28;20058;-65
2023/06/19 04:11:39;;;;;;;6.90;5.55;;;;;;;;;;5095649;28;20024;-65
2023/06/19 04:14:05;;;;;;;8.57;5.35;;;;;;;;;;5095300;28;20039;-66
2023/06/19 04:16:31;;;;;;;7.25;5.60;;;;;;;;;;5110898;28;20020;-65
2023/06/19 04:18:58;;;;;;;11.25;6.00;;;;;;;;;;5095214;28;20035;-65
2023/06/19 04:21:24;;;;;;;9.32;5.70;;;;;;;;;;5094808;28;20016;-66
2023/06/19 04:23:51;;;;;;;8.20;5.80;;;;;;;;;;5095504;28;20024;-66
2023/06/19 04:26:18;;;;;;;8.18;5.30;;;;;;;;;;5095458;28;20027;-66
2023/06/19 04:28:44;;;;;;;10.18;5.70;;;;;;;;;;5095251;28;20057;-65
2023/06/19 04:31:10;;;;;;;10.82;5.43;;;;;;;;;;5094747;28;20035;-66
2023/06/19 04:33:37;;;;;;;6.43;5.25;;;;;;;;;;5094877;28;20026;-65
2023/06/19 04:36:03;;;;;;;5.60;5.00;;;;;;;;;;5094413;28;20449;-66
2023/06/19 04:38:29;;;;;;;9.15;5.50;;;;;;;;;;5094830;28;20027;-66
2023/06/19 04:40:57;;;;;;;9.07;5.43;;;;;;;;;;5094730;28;20036;-66
2023/06/19 04:43:24;;;;;;;6.60;5.68;;;;;;;;;;5094597;28;20035;-65
2023/06/19 04:45:51;;;;;;;8.90;5.55;;;;;;;;;;5094952;28;20032;-66
2023/06/19 04:48:17;;;;;;;6.93;5.65;;;;;;;;;;5094914;28;20020;-65
2023/06/19 04:50:43;;;;;;;8.48;5.38;;;;;;;;;;5094145;28;20395;-65
2023/06/19 04:53:09;;;;;;;9.68;5.40;;;;;;;;;;5094388;28;20040;-66
2023/06/19 04:55:37;;;;;;;6.95;6.03;;;;;;;;;;5094347;28;20043;-66
2023/06/19 04:58:03;;;;;;;8.00;5.55;;;;;;;;;;5094693;28;20028;-66
2023/06/19 05:00:30;;;;;;;7.55;5.97;;;;;;;;;;5094416;28;20036;-66
2023/06/19 05:03:00;;;;;;;8.13;5.78;;;;;;;;;;5093959;28;20024;-65
2023/06/19 05:05:27;;;;;;;9.43;5.77;;;;;;;;;;5093835;28;20404;-66
2023/06/19 05:07:54;;;;;;;12.32;6.20;;;;;;;;;;5094316;28;20490;-66
2023/06/19 05:10:20;;;;;;;6.53;5.50;;;;;;;;;;5094297;28;20020;-66
2023/06/19 05:12:47;;;;;;;6.80;6.03;;;;;;;;;;5094221;28;20030;-66
2023/06/19 05:15:13;;;;;;;8.75;6.20;;;;;;;;;;5093924;28;20541;-66
2023/06/19 05:17:40;;;;;;;11.40;6.07;;;;;;;;;;5094247;28;20054;-66
2023/06/19 05:20:09;;;;;;;12.07;6.30;;;;;;;;;;5093878;28;20027;-66
2023/06/19 05:22:36;;;;;;;10.07;5.40;;;;;;;;;;5093897;28;20365;-66
2023/06/19 05:25:03;;;;;;;7.05;5.50;;;;;;;;;;5093938;28;20024;-66
2023/06/19 05:27:29;;;;;;;10.07;5.50;;;;;;;;;;5093676;28;20030;-66
2023/06/19 05:29:55;;;;;;;8.55;5.82;;;;;;;;;;5093904;28;20028;-66
2023/06/19 05:32:22;;;;;;;7.80;5.50;;;;;;;;;;5092537;28;20092;-66
2023/06/19 05:34:48;;;;;;;6.65;5.13;;;;;;;;;;5093288;28;20043;-66
2023/06/19 05:37:14;;;;;;;11.32;5.72;;;;;;;;;;5093913;28;20038;-66
2023/06/19 05:39:41;;;;;;;10.00;5.43;;;;;;;;;;5093650;28;20373;-66
2023/06/19 05:42:07;;;;;;;10.10;5.80;;;;;;;;;;5093515;28;20028;-65
2023/06/19 05:44:33;;;;;;;10.00;5.60;;;;;;;;;;5093452;28;20028;-66
2023/06/19 05:47:00;;;;;;;11.45;5.30;;;;;;;;;;5109482;28;20016;-66
2023/06/19 05:49:26;;;;;;;10.40;5.85;;;;;;;;;;5093033;28;20020;-66
2023/06/19 05:51:52;;;;;;;9.30;5.85;;;;;;;;;;5093165;28;20089;-66
2023/06/19 05:54:19;;;;;;;7.05;5.30;;;;;;;;;;5093320;28;20526;-66
2023/06/19 05:56:46;;;;;;;8.98;5.32;;;;;;;;;;5091038;28;20016;-66
2023/06/19 05:59:14;;;;;;;11.30;5.70;;;;;;;;;;5082358;28;20026;-66
2023/06/19 06:01:40;;;;;;;10.98;5.65;;;;;;;;;;5092370;28;20026;-66
2023/06/19 06:04:06;;;;;;;9.90;5.60;;;;;;;;;;5092697;28;20032;-66
2023/06/19 06:06:33;;;;;;;7.88;5.65;;;;;;;;;;5092753;28;20042;-66
2023/06/19 06:08:59;;;;;;;6.50;5.30;;;;;;;;;;5091495;28;20016;-66
2023/06/19 06:11:26;;;;;;;16.58;6.07;;;;;;;;;;5089341;28;20020;-68
2023/06/19 06:13:52;;;;;;;8.00;5.50;;;;;;;;;;5090959;28;20169;-70
2023/06/19 06:16:18;;;;;;;11.20;4.93;;;;;;;;;;5091963;28;20031;-69
2023/06/19 06:18:45;;;;;;;8.82;5.75;;;;;;;;;;5092207;28;20024;-69
2023/06/19 06:21:12;;;;;;;7.00;5.10;;;;;;;;;;5092471;28;20032;-69
2023/06/19 06:23:41;;;;;;;14.27;5.50;;;;;;;;;;5090734;28;20012;-68
2023/06/19 06:26:07;;;;;;;8.95;5.32;;;;;;;;;;5090674;28;20084;-69
2023/06/19 06:28:33;;;;;;;7.15;4.40;;;;;;;;;;5083527;28;20050;-69
2023/06/19 06:30:59;;;;;;;9.65;4.97;;;;;;;;;;5090544;28;20076;-69
2023/06/19 06:33:26;;;;;;;7.65;4.90;;;;;;;;;;5090767;28;20088;-69
2023/06/19 06:35:55;;;;;;;7.18;4.60;;;;;;;;;;5090860;28;20040;-69
2023/06/19 06:38:21;;;;;;;7.05;4.97;;;;;;;;;;5091168;28;20028;-69
2023/06/19 06:40:48;;;;;;;7.13;4.72;;;;;;;;;;5091459;28;20453;-69
2023/06/19 06:43:15;;;;;;;8.02;4.68;;;;;;;;;;5091378;28;20038;-69
2023/06/19 06:45:42;;;;;;;6.22;4.72;;;;;;;;;;5091597;28;20095;-69
2023/06/19 06:48:08;;;;;;;15.40;4.80;;;;;;;;;;5091385;28;20404;-70
2023/06/19 06:50:35;;;;;;;14.25;5.07;;;;;;;;;;5091203;28;20016;-69
2023/06/19 06:53:01;;;;;;;8.88;4.93;;;;;;;;;;5091555;28;20090;-70
2023/06/19 06:55:28;;;;;;;8.35;4.45;;;;;;;;;;5090983;28;20040;-70
2023/06/19 06:57:54;;;;;;;6.53;5.10;;;;;;;;;;5091519;28;20027;-70
2023/06/19 07:00:20;;;;;;;7.75;5.65;;;;;;;;;;5091899;28;20034;-70
2023/06/19 07:02:50;;;;;;;6.47;5.03;;;;;;;;;;5091999;28;20027;-70
2023/06/19 07:05:16;;;;;;;7.53;4.65;;;;;;;;;;5091277;28;20031;-70
2023/06/19 07:07:42;;;;;;;24.58;5.60;;;;;;;;;;5089994;28;20434;-70
2023/06/19 07:10:09;;;;;;;7.97;4.80;;;;;;;;;;5089880;28;20034;-70
2023/06/19 07:12:36;;;;;;;27.25;5.80;;;;;;;;;;5091288;28;20016;-70
2023/06/19 07:15:02;;;;;;;15.90;5.20;;;;;;;;;;5090912;28;20024;-70
2023/06/19 07:17:28;;;;;;;7.15;4.75;;;;;;;;;;5090686;28;20024;-70
2023/06/19 07:19:55;;;;;;;14.10;4.97;;;;;;;;;;5090818;28;20025;-70
2023/06/19 07:22:21;;;;;;;13.82;5.10;;;;;;;;;;5092098;28;20028;-70
2023/06/19 07:24:47;;;;;;;7.13;5.20;;;;;;;;;;5090570;28;20034;-68
2023/06/19 07:27:14;;;;;;;9.13;5.22;;;;;;;;;;5079981;28;20028;-67
2023/06/19 07:29:40;;;;;;;7.35;4.63;;;;;;;;;;5094653;28;20058;-68
2023/06/19 07:32:07;;;;;;;7.82;4.65;;;;;;;;;;5094211;28;20027;-68
2023/06/19 07:34:33;;;;;;;6.47;4.53;;;;;;;;;;5094839;28;20048;-69
2023/06/19 07:36:59;;;;;;;7.07;4.90;;;;;;;;;;5093595;28;20446;-68
2023/06/19 07:39:25;;;;;;;7.32;4.82;;;;;;;;;;5095200;28;20027;-68
2023/06/19 07:41:52;;;;;;;10.70;4.90;;;;;;;;;;5095302;28;20020;-68
2023/06/19 07:44:20;;;;;;;10.85;5.13;;;;;;;;;;5095035;28;20503;-65
2023/06/19 07:46:47;;;;;;;12.05;4.85;;;;;;;;;;5093436;28;20415;-66
2023/06/19 07:49:13;;;;;;;8.25;4.90;;;;;;;;;;5094134;28;20027;-66
2023/06/19 07:51:39;;;;;;;9.60;5.18;;;;;;;;;;5094636;28;20044;-66
2023/06/19 07:54:06;;;;;;;8.20;5.25;;;;;;;;;;5095595;28;20032;-66
2023/06/19 07:56:33;;;;;;;11.05;5.50;;;;;;;;;;5094333;28;20411;-66
2023/06/19 07:58:59;;;;;;;10.77;5.32;;;;;;;;;;5095298;28;20104;-66
2023/06/19 08:01:26;;;;;;;11.02;5.25;;;;;;;;;;5094859;28;20085;-66
2023/06/19 08:03:52;;;;;;;10.65;5.00;;;;;;;;;;5094962;28;20065;-66
2023/06/19 08:06:18;;;;;;;8.68;5.20;;;;;;;;;;5094296;28;20051;-66
2023/06/19 08:08:45;;;;;;;7.57;5.07;;;;;;;;;;5094316;28;20692;-66
2023/06/19 08:11:11;;;;;;;8.10;4.72;;;;;;;;;;5095189;28;20133;-66
2023/06/19 08:13:37;;;;;;;8.45;4.47;;;;;;;;;;5094946;28;20031;-66
2023/06/19 08:16:04;;;;;;;6.57;4.50;;;;;;;;;;5094213;28;20042;-64
2023/06/19 08:18:31;;;;;;;11.63;4.80;;;;;;;;;;5091134;28;20038;-66
2023/06/19 08:20:57;;;;;;;8.02;3.88;;;;;;;;;;5094979;28;20028;-67
2023/06/19 08:23:23;;;;;;;5.53;4.18;;;;;;;;;;5094183;28;20486;-66
2023/06/19 08:25:51;;;;;;;6.10;3.80;;;;;;;;;;5094717;28;20027;-66
2023/06/19 08:28:17;;;;;;;9.32;3.80;;;;;;;;;;5094077;28;20050;-66
2023/06/19 08:30:45;;;;;;;8.93;3.88;;;;;;;;;;5094085;28;20016;-67
2023/06/19 08:33:12;;;;;;;6.22;3.60;;;;;;;;;;5093211;28;20027;-67
2023/06/19 08:35:39;;;;;;;6.10;3.47;;;;;;;;;;5091173;28;20415;-66
2023/06/19 08:38:05;;;;;;;4.55;3.90;;;;;;;;;;5072756;28;20047;-66
2023/06/19 08:40:31;;;;;;;11.20;4.10;;;;;;;;;;5073970;28;20031;-66
2023/06/19 08:42:58;;;;;;;6.90;3.65;;;;;;;;;;5089222;28;20427;-66
2023/06/19 08:45:26;;;;;;;6.38;3.60;;;;;;;;;;5093527;28;20028;-67
2023/06/19 08:47:58;;;;;;;5.72;3.50;;;;;;;;;;5092776;28;20423;-67
2023/06/19 08:50:25;;;;;;;7.47;3.75;;;;;;;;;;5093788;28;20461;-66
2023/06/19 08:52:51;;;;;;;8.60;3.90;;;;;;;;;;5093830;28;20036;-66
2023/06/19 08:55:18;;;;;;;6.22;3.85;;;;;;;;;;5093867;28;20549;-66
2023/06/19 08:57:44;;;;;;;5.03;3.75;;;;;;;;;;5093837;28;20016;-66
2023/06/19 09:00:11;;;;;;;7.38;3.75;;;;;;;;;;5093318;28;20020;-66
2023/06/19 09:02:41;;;;;;;5.47;3.55;;;;;;;;;;5093147;28;20468;-66
2023/06/19 09:05:07;;;;;;;;;;;;;;;;;;5094181;28;20187;-66
2023/06/19 09:07:34;;;;;;;7.38;4.03;;;;;;;;;;5093495;28;20302;-67
2023/06/19 09:10:00;;;;;;;6.82;3.83;;;;;;;;;;5093377;28;20024;-65
2023/06/19 09:12:26;;;;;;;6.65;3.88;;;;;;;;;;5093451;28;20051;-66
2023/06/19 09:14:53;;;;;;;7.25;4.18;;;;;;;;;;5093481;28;20487;-66
2023/06/19 09:17:20;;;;;;;7.13;4.10;;;;;;;;;;5092772;28;20493;-66
2023/06/19 09:19:55;;;;;;;8.73;4.15;;;;;;;;;;5093221;28;20047;-67
2023/06/19 09:22:22;;;;;;;6.07;3.65;;;;;;;;;;5093033;28;20020;-66
2023/06/19 09:24:49;;;;;;;4.78;3.90;;;;;;;;;;5092765;28;20028;-66
2023/06/19 09:27:20;;;;;;;7.72;3.92;;;;;;;;;;5092694;28;20480;-65
2023/06/19 09:29:47;;;;;;;5.60;4.25;;;;;;;;;;5092817;28;20465;-66
2023/06/19 09:32:19;;;;;;;9.70;4.07;;;;;;;;;;5093345;28;20024;-66
2023/06/19 09:34:46;;;;;;;7.60;4.60;;;;;;;;;;5092677;28;20040;-65
2023/06/19 09:37:13;;;;;;;5.50;4.18;;;;;;;;;;5093208;28;20027;-66
2023/06/19 09:39:39;;;;;;;4.93;4.10;;;;;;;;;;5092777;28;20392;-66
2023/06/19 09:42:09;;;;;;;7.07;4.50;;;;;;;;;;5093457;28;20036;-65
2023/06/19 09:44:43;;;;;;;7.50;4.80;;;;;;;;;;5093164;28;20080;-66
2023/06/19 09:47:18;;;;;;;9.25;4.05;;;;;;;;;;5092753;28;20032;-64
2023/06/19 09:49:48;;;;;;;8.15;5.00;;;;;;;;;;5093192;28;20024;-64
2023/06/19 09:52:15;;;;;;;8.60;4.28;;;;;;;;;;5092891;28;20055;-66
2023/06/19 09:54:43;;;;;;;9.15;4.68;;;;;;;;;;5092103;28;20028;-65
2023/06/19 09:57:11;;;;;;;6.03;4.45;;;;;;;;;;5091335;28;20484;-65
2023/06/19 09:59:39;;;;;;;6.28;4.60;;;;;;;;;;5090642;28;20020;-64
2023/06/19 10:02:06;;;;;;;8.95;4.10;;;;;;;;;;5089728;28;20035;-66
2023/06/19 10:04:44;;;;;;;6.05;4.03;;;;;;;;;;5092434;28;20028;-66
2023/06/19 10:07:18;;;;;;;5.57;3.58;;;;;;;;;;5092326;28;20028;-66
2023/06/19 10:09:56;;;;;;;6.45;3.60;;;;;;;;;;5092171;28;20384;-67
2023/06/19 10:12:22;;;;;;;4.30;3.33;;;;;;;;;;5092621;28;20032;-67
2023/06/19 10:14:50;;;;;;;5.72;3.33;;;;;;;;;;5092192;28;20051;-67
2023/06/19 10:17:19;;;;;;;4.35;3.60;;;;;;;;;;5092323;28;20371;-67
2023/06/19 10:19:52;;;;;;;3.95;3.42;;;;;;;;;;5092416;28;20030;-67
2023/06/19 10:22:24;;;;;;;5.82;3.22;;;;;;;;;;5092817;28;20028;-67
2023/06/19 10:24:50;;;;;;;3.70;3.40;;;;;;;;;;5091916;28;20030;-67
2023/06/19 10:27:24;;;;;;;10.05;3.75;;;;;;;;;;5092090;28;20024;-67
2023/06/19 10:29:54;;;;;;;4.47;3.38;;;;;;;;;;5092425;28;20024;-67
2023/06/19 10:32:20;;;;;;;;;;;;;;;;;;5092697;28;20031;-67
2023/06/19 10:34:47;;;;;;;4.95;3.30;;;;;;;;;;5092076;28;19930;-67
2023/06/19 10:37:14;;;;;;;4.13;2.90;;;;;;;;;;5092692;28;20030;-67
2023/06/19 10:39:40;;;;;;;6.85;3.20;;;;;;;;;;5091495;28;20469;-67
2023/06/19 10:42:08;;;;;;;5.18;3.22;;;;;;;;;;5092745;28;20016;-67
2023/06/19 10:44:34;;;;;;;5.07;3.00;;;;;;;;;;5091683;28;20511;-67
2023/06/19 10:47:02;;;;;;;8.00;3.30;;;;;;;;;;5092495;28;20047;-67
2023/06/19 10:49:28;;;;;;;4.30;3.35;;;;;;;;;;5092768;28;20031;-67
2023/06/19 10:51:58;;;;;;;5.95;3.28;;;;;;;;;;5092163;28;20039;-67
2023/06/19 10:54:25;;;;;;;5.18;3.20;;;;;;;;;;5092478;28;20502;-67
2023/06/19 10:56:51;;;;;;;5.22;3.28;;;;;;;;;;5092553;28;20016;-66
2023/06/19 10:59:18;;;;;;;4.63;3.50;;;;;;;;;;5092557;28;20384;-67
2023/06/19 11:01:50;;;;;;;4.20;3.25;;;;;;;;;;5092197;28;20017;-67
2023/06/19 11:04:17;;;;;;;4.45;3.05;;;;;;;;;;5082014;28;20043;-67
2023/06/19 11:06:46;;;;;;;9.30;3.58;;;;;;;;;;5090491;28;20032;-67
2023/06/19 11:09:13;;;;;;;5.03;3.33;;;;;;;;;;5092107;28;20026;-67
2023/06/19 11:11:40;;;;;;;3.85;3.17;;;;;;;;;;5092206;28;20496;-67
2023/06/19 11:14:07;;;;;;;5.63;3.10;;;;;;;;;;5092542;28;20067;-67
2023/06/19 11:16:34;;;;;;;5.10;2.92;;;;;;;;;;5092605;28;20023;-67
2023/06/19 11:19:01;;;;;;;3.65;3.03;;;;;;;;;;5089271;28;20378;-68
2023/06/19 11:21:37;;;;;;;5.05;3.22;;;;;;;;;;5090438;28;20031;-67
2023/06/19 11:24:05;;;;;;;5.88;3.22;;;;;;;;;;5091918;28;20029;-67
2023/06/19 11:26:36;;;;;;;3.60;3.30;;;;;;;;;;5091840;28;20024;-67
2023/06/19 11:29:03;;;;;;;4.80;3.17;;;;;;;;;;5091791;28;20016;-67
2023/06/19 11:31:29;;;;;;;7.20;3.55;;;;;;;;;;5091716;28;20022;-67
2023/06/19 11:33:57;;;;;;;5.90;3.50;;;;;;;;;;5091711;28;20387;-68
2023/06/19 11:36:24;;;;;;;5.45;3.38;;;;;;;;;;5091075;28;20046;-67
2023/06/19 11:38:51;;;;;;;5.18;3.80;;;;;;;;;;5090129;28;20512;-65
2023/06/19 11:41:26;;;;;;;4.72;3.70;;;;;;;;;;5088581;28;20442;-66
2023/06/19 11:43:58;;;;;;;4.30;3.60;;;;;;;;;;5089956;28;20042;-66
2023/06/19 11:46:29;;;;;;;8.73;3.60;;;;;;;;;;5091204;28;20023;-67
2023/06/19 11:48:56;;;;;;;4.38;3.45;;;;;;;;;;5090923;28;20016;-67
2023/06/19 11:51:22;;;;;;;3.85;3.20;;;;;;;;;;5089993;28;20035;-65
2023/06/19 11:53:48;;;;;;;3.83;3.28;;;;;;;;;;5091349;28;20016;-66
2023/06/19 11:56:15;;;;;;;6.65;3.25;;;;;;;;;;5091106;28;20038;-65
2023/06/19 11:58:41;;;;;;;4.65;3.58;;;;;;;;;;5091145;28;20387;-67
2023/06/19 12:01:08;;;;;;;5.68;3.22;;;;;;;;;;5091476;28;20030;-67
2023/06/19 12:03:34;;;;;;;5.82;4.00;;;;;;;;;;5090156;28;20395;-66
2023/06/19 12:06:00;;;;;;;4.13;3.10;;;;;;;;;;5094443;28;20022;-65
2023/06/19 12:08:27;;;;;;;6.68;3.30;;;;;;;;;;5087322;28;20027;-67
2023/06/19 12:10:53;;;;;;;5.05;3.40;;;;;;;;;;5089434;28;20036;-66
2023/06/19 12:13:19;;;;;;;5.70;3.17;;;;;;;;;;5092121;28;20020;-66
2023/06/19 12:15:46;;;;;;;5.30;3.50;;;;;;;;;;5094559;28;20500;-67
2023/06/19 12:18:12;;;;;;;4.65;3.42;;;;;;;;;;5094180;28;20020;-66
2023/06/19 12:20:38;;;;;;;7.03;3.17;;;;;;;;;;5092875;28;20473;-67
2023/06/19 12:23:05;;;;;;;5.32;3.33;;;;;;;;;;5095012;28;20020;-67
2023/06/19 12:25:31;;;;;;;4.55;3.40;;;;;;;;;;5095084;28;20400;-67
2023/06/19 12:27:58;;;;;;;4.80;3.00;;;;;;;;;;5094424;28;20020;-67
2023/06/19 12:30:24;;;;;;;5.20;3.47;;;;;;;;;;5094414;28;20385;-67
2023/06/19 12:32:51;;;;;;;3.70;3.20;;;;;;;;;;5094568;28;20498;-67
2023/06/19 12:35:17;;;;;;;4.53;3.10;;;;;;;;;;5094078;28;20046;-67
2023/06/19 12:37:44;;;;;;;5.43;3.03;;;;;;;;;;5093839;28;20020;-67
2023/06/19 12:40:10;;;;;;;4.45;3.03;;;;;;;;;;5093459;28;20027;-67
2023/06/19 12:42:37;;;;;;;8.13;3.20;;;;;;;;;;5094439;28;20016;-67
2023/06/19 12:45:03;;;;;;;4.93;3.47;;;;;;;;;;5094172;28;20027;-67
2023/06/19 12:47:30;;;;;;;4.93;3.10;;;;;;;;;;5093839;28;20020;-67
2023/06/19 12:49:56;;;;;;;6.70;3.05;;;;;;;;;;5083308;28;20051;-66
2023/06/19 12:52:22;;;;;;;4.93;3.17;;;;;;;;;;5092626;28;20050;-67
2023/06/19 12:54:49;;;;;;;3.33;2.97;;;;;;;;;;5093784;28;20043;-67
2023/06/19 12:57:15;;;;;;;3.83;3.10;;;;;;;;;;5093552;28;20024;-67
2023/06/19 12:59:41;;;;;;;4.20;3.10;;;;;;;;;;5093752;28;20031;-67
2023/06/19 13:02:08;;;;;;;4.95;3.10;;;;;;;;;;5091325;28;20024;-66
2023/06/19 13:04:34;;;;;;;4.82;3.58;;;;;;;;;;5092831;28;20473;-66
2023/06/19 13:07:00;;;;;;;4.03;3.05;;;;;;;;;;5094041;28;20024;-67
2023/06/19 13:09:27;;;;;;;4.45;3.17;;;;;;;;;;5092851;28;20024;-67
2023/06/19 13:11:53;;;;;;;5.30;3.60;;;;;;;;;;5091849;28;20036;-67
2023/06/19 13:14:19;;;;;;;4.50;3.33;;;;;;;;;;5093390;28;20036;-66
2023/06/19 13:16:46;;;;;;;4.35;3.30;;;;;;;;;;5092319;28;20055;-67
2023/06/19 13:19:12;;;;;;;6.88;3.42;;;;;;;;;;5092724;28;20016;-66
2023/06/19 13:21:38;;;;;;;6.40;3.30;;;;;;;;;;5092710;28;20036;-66
2023/06/19 13:24:05;;;;;;;5.60;3.35;;;;;;;;;;5092351;28;20034;-66
2023/06/19 13:26:31;;;;;;;5.60;3.72;;;;;;;;;;5093454;28;20039;-67
2023/06/19 13:28:58;;;;;;;5.75;3.35;;;;;;;;;;5093255;28;20027;-66
2023/06/19 13:31:25;;;;;;;4.88;3.60;;;;;;;;;;5093258;28;20020;-67
2023/06/19 13:33:52;;;;;;;4.45;3.17;;;;;;;;;;5093357;28;20050;-66
2023/06/19 13:36:19;;;;;;;4.75;3.60;;;;;;;;;;5093145;28;20032;-66
2023/06/19 13:38:46;;;;;;;5.70;4.03;;;;;;;;;;5092869;28;20020;-66
2023/06/19 13:41:13;;;;;;;4.28;3.25;;;;;;;;;;5093239;28;20092;-66
2023/06/19 13:43:40;;;;;;;4.95;3.53;;;;;;;;;;5093328;28;20030;-66
2023/06/19 13:46:07;;;;;;;5.65;3.83;;;;;;;;;;5092138;28;20480;-66
2023/06/19 13:48:33;;;;;;;5.40;3.60;;;;;;;;;;5092405;28;20028;-66
2023/06/19 13:51:00;;;;;;;6.20;3.65;;;;;;;;;;5092518;28;20020;-66
2023/06/19 13:53:29;;;;;;;7.18;3.90;;;;;;;;;;5072074;28;20508;-66
2023/06/19 13:55:55;;;;;;;5.15;3.60;;;;;;;;;;5083251;28;20020;-66
2023/06/19 13:58:21;;;;;;;6.07;3.65;;;;;;;;;;5092536;28;20016;-66
2023/06/19 14:00:48;;;;;;;8.07;3.97;;;;;;;;;;5092617;28;20030;-66
2023/06/19 14:03:14;;;;;;;4.45;3.63;;;;;;;;;;5091888;28;20046;-66
2023/06/19 14:05:40;;;;;;;5.53;3.97;;;;;;;;;;5092134;28;20028;-67
2023/06/19 14:08:08;;;;;;;4.60;3.95;;;;;;;;;;5090712;28;20026;-67
2023/06/19 14:10:35;;;;;;;5.97;4.00;;;;;;;;;;5091077;28;20046;-66
2023/06/19 14:13:01;;;;;;;10.02;4.45;;;;;;;;;;5090919;28;20057;-66
2023/06/19 14:15:27;;;;;;;8.82;4.07;;;;;;;;;;5090624;28;20028;-66
2023/06/19 14:17:54;;;;;;;6.95;4.10;;;;;;;;;;5091933;28;20039;-66
2023/06/19 14:20:20;;;;;;;7.43;4.03;;;;;;;;;;5091547;28;20395;-66
2023/06/19 14:22:46;;;;;;;4.82;3.95;;;;;;;;;;5091314;28;20023;-65
2023/06/19 14:25:13;;;;;;;4.85;4.20;;;;;;;;;;5080980;28;20025;-65
2023/06/19 14:27:39;;;;;;;7.38;4.30;;;;;;;;;;5087903;28;20498;-64
2023/06/19 14:30:07;;;;;;;5.35;4.30;;;;;;;;;;5090280;28;20030;-66
2023/06/19 14:32:34;;;;;;;6.22;4.10;;;;;;;;;;5091679;28;20030;-66
2023/06/19 14:35:00;;;;;;;8.90;3.67;;;;;;;;;;5091296;28;20024;-66
2023/06/19 14:37:27;;;;;;;11.38;4.55;;;;;;;;;;5090925;28;20400;-66
2023/06/19 14:39:54;;;;;;;7.13;4.47;;;;;;;;;;5091107;28;20028;-66